Time;durP1;ratioP1;P1;durP2;ratioP2;P2;SDS_P1;SDS_P2;PMS_P1;PMS_P2;Temp;Humidity;BMP_temperature;BMP_pressure;BME280_temperature;BME280_humidity;BME280_pressure;Samples;Min_cycle;Max_cycle;Signal;HPM_P1;HPM_P2
2022/03/30 00:01:35;;;;;;;30.13;18.23;;;8.80;83.90;;;;;;2611718;54;20147;-78
2022/03/30 00:04:01;;;;;;;26.87;17.83;;;8.80;85.10;;;;;;2609868;47;20790;-79
2022/03/30 00:06:27;;;;;;;32.37;19.50;;;8.80;85.90;;;;;;2612447;39;20770;-80
2022/03/30 00:08:53;;;;;;;32.47;18.37;;;8.80;85.10;;;;;;2611422;39;20529;-79
2022/03/30 00:11:19;;;;;;;36.07;19.60;;;8.80;85.90;;;;;;2610331;54;20181;-80
2022/03/30 00:13:44;;;;;;;30.03;18.57;;;8.80;85.50;;;;;;2611968;54;20421;-80
2022/03/30 00:16:11;;;;;;;30.00;20.03;;;8.70;86.30;;;;;;2612682;46;20446;-80
2022/03/30 00:18:37;;;;;;;27.43;18.00;;;8.70;87.10;;;;;;2613872;54;20229;-81
2022/03/30 00:21:04;;;;;;;42.27;19.47;;;8.70;88.10;;;;;;2612611;39;20849;-79
2022/03/30 00:23:30;;;;;;;30.63;18.30;;;8.60;88.40;;;;;;2609127;47;20408;-80
2022/03/30 00:25:55;;;;;;;28.33;18.13;;;8.60;90.70;;;;;;2611113;31;20851;-80
2022/03/30 00:28:21;;;;;;;36.90;19.50;;;8.50;91.30;;;;;;2610922;54;20192;-78
2022/03/30 00:30:47;;;;;;;30.47;17.80;;;8.40;92.50;;;;;;2611352;54;20267;-78
2022/03/30 00:33:13;;;;;;;28.20;19.23;;;8.40;93.60;;;;;;2611627;54;20188;-79
2022/03/30 00:35:38;;;;;;;32.67;19.23;;;8.30;94.60;;;;;;2612136;54;20396;-79
2022/03/30 00:38:04;;;;;;;29.60;19.13;;;8.30;95.10;;;;;;2611940;54;20160;-79
2022/03/30 00:40:30;;;;;;;29.50;20.37;;;8.30;95.50;;;;;;2611556;54;20148;-80
2022/03/30 00:42:56;;;;;;;28.70;18.17;;;8.20;96.40;;;;;;2611928;54;20157;-79
2022/03/30 00:45:23;;;;;;;28.90;16.50;;;8.20;98.90;;;;;;2612870;39;20553;-79
2022/03/30 00:47:50;;;;;;;30.03;18.27;;;8.20;99.40;;;;;;2611897;47;20191;-80
2022/03/30 00:50:19;;;;;;;26.30;17.50;;;8.20;99.70;;;;;;2610466;47;20434;-81
2022/03/30 00:52:47;;;;;;;35.93;19.23;;;8.10;99.90;;;;;;2610909;54;20416;-81
2022/03/30 00:55:17;;;;;;;42.67;18.63;;;8.10;99.90;;;;;;2610728;54;20416;-79
2022/03/30 00:57:45;;;;;;;35.67;19.37;;;8.00;99.90;;;;;;2611367;47;20555;-79
2022/03/30 01:00:14;;;;;;;31.27;17.23;;;7.90;99.90;;;;;;2612117;54;20443;-79
2022/03/30 01:02:43;;;;;;;40.37;19.10;;;7.90;99.90;;;;;;2611709;54;20439;-74
2022/03/30 01:05:11;;;;;;;28.77;17.87;;;7.90;99.90;;;;;;2610991;54;20424;-75
2022/03/30 01:07:37;;;;;;;26.70;17.93;;;7.90;99.90;;;;;;2611881;54;20415;-75
2022/03/30 01:10:08;;;;;;;31.80;18.97;;;7.80;99.90;;;;;;2612141;47;20412;-74
2022/03/30 01:12:38;;;;;;;26.37;16.60;;;7.90;99.90;;;;;;2611101;47;20172;-74
2022/03/30 01:15:06;;;;;;;41.43;19.90;;;7.80;99.90;;;;;;2611429;54;20969;-73
2022/03/30 01:17:33;;;;;;;36.27;17.63;;;7.60;99.90;;;;;;2611972;54;20966;-74
2022/03/30 01:19:59;;;;;;;30.60;19.00;;;7.80;99.90;;;;;;2611149;54;20529;-77
2022/03/30 01:22:26;;;;;;;45.00;19.40;;;7.80;99.90;;;;;;2612497;54;21637;-75
2022/03/30 01:24:52;;;;;;;34.43;17.87;;;7.70;99.90;;;;;;2611785;39;20831;-74
2022/03/30 01:27:18;;;;;;;40.40;18.50;;;7.70;99.90;;;;;;2612375;54;20415;-75
2022/03/30 01:32:29;;;;;;;35.43;18.97;;;7.70;99.90;;;;;;2611925;47;20245;-75
2022/03/30 01:35:00;;;;;;;43.23;18.90;;;7.70;99.90;;;;;;2611455;54;20509;-74
2022/03/30 01:37:28;;;;;;;42.53;18.80;;;7.50;99.90;;;;;;2612013;54;20436;-75
2022/03/30 01:39:56;;;;;;;35.70;18.07;;;7.40;99.90;;;;;;2610278;54;20423;-74
2022/03/30 01:42:23;;;;;;;28.30;17.90;;;7.30;99.90;;;;;;2611322;54;20400;-74
2022/03/30 01:44:50;;;;;;;31.90;19.30;;;7.10;99.90;;;;;;2611473;54;20513;-75
2022/03/30 01:47:16;;;;;;;30.97;19.10;;;7.00;99.90;;;;;;2611512;47;20409;-74
2022/03/30 01:49:42;;;;;;;33.13;19.57;;;7.00;99.90;;;;;;2612717;54;20380;-74
2022/03/30 01:52:08;;;;;;;31.80;20.10;;;7.00;99.90;;;;;;2611540;54;21035;-73
2022/03/30 01:54:37;;;;;;;40.40;20.00;;;7.00;99.90;;;;;;2611797;54;20404;-75
2022/03/30 01:57:03;;;;;;;34.83;19.60;;;6.90;99.90;;;;;;2611003;54;20412;-74
2022/03/30 01:59:30;;;;;;;26.10;16.30;;;6.90;99.90;;;;;;2612042;47;20436;-75
2022/03/30 02:01:58;;;;;;;33.50;19.47;;;6.80;99.90;;;;;;2610089;54;20473;-74
2022/03/30 02:04:25;;;;;;;35.13;19.77;;;6.80;99.90;;;;;;2610703;54;20417;-75
2022/03/30 02:06:51;;;;;;;35.17;18.93;;;7.10;99.90;;;;;;2612864;54;20540;-74
2022/03/30 02:09:17;;;;;;;38.20;19.93;;;6.90;99.90;;;;;;2612707;39;21118;-74
2022/03/30 02:11:44;;;;;;;37.87;18.83;;;;;;;;;;2610366;54;20455;-74
2022/03/30 02:14:10;;;;;;;36.20;17.50;;;7.00;99.90;;;;;;2611745;54;20995;-74
2022/03/30 02:16:36;;;;;;;35.63;19.27;;;7.00;99.90;;;;;;2610949;47;20436;-74
2022/03/30 02:19:02;;;;;;;34.33;18.43;;;7.00;99.90;;;;;;2612930;39;20897;-75
2022/03/30 02:21:29;;;;;;;28.43;15.83;;;;;;;;;;2611855;54;20147;-76
2022/03/30 02:23:54;;;;;;;37.33;18.00;;;7.00;99.90;;;;;;2612434;39;20891;-75
2022/03/30 02:26:20;;;;;;;41.17;19.80;;;7.00;99.90;;;;;;2612467;47;20419;-74
2022/03/30 02:28:56;;;;;;;44.50;19.17;;;6.90;99.90;;;;;;2613515;54;20199;-74
2022/03/30 02:31:23;;;;;;;30.10;18.07;;;6.80;99.90;;;;;;2612921;54;20650;-76
2022/03/30 02:33:49;;;;;;;33.80;17.93;;;6.80;99.90;;;;;;2612871;47;20400;-75
2022/03/30 02:36:15;;;;;;;39.63;20.33;;;6.80;99.90;;;;;;2611779;54;20426;-74
2022/03/30 02:38:42;;;;;;;33.73;20.43;;;6.90;99.90;;;;;;2612029;54;20408;-75
2022/03/30 02:41:09;;;;;;;26.60;16.93;;;6.80;99.90;;;;;;2611448;47;20555;-74
2022/03/30 02:43:36;;;;;;;31.70;18.33;;;6.80;99.90;;;;;;2612497;54;20431;-74
2022/03/30 02:46:03;;;;;;;29.47;17.53;;;6.70;99.90;;;;;;2612867;54;20385;-75
2022/03/30 02:48:29;;;;;;;35.00;20.23;;;6.70;99.90;;;;;;2610711;47;20425;-76
2022/03/30 02:51:00;;;;;;;30.63;16.70;;;;;;;;;;2612223;51;20411;-75
2022/03/30 02:53:26;;;;;;;38.60;19.73;;;6.60;99.90;;;;;;2611394;54;20405;-75
2022/03/30 02:55:52;;;;;;;36.33;17.97;;;6.50;99.90;;;;;;2613050;54;20420;-76
2022/03/30 02:58:19;;;;;;;29.77;16.60;;;6.40;99.90;;;;;;2612317;54;20425;-77
2022/03/30 03:00:46;;;;;;;37.00;16.73;;;;;;;;;;2612421;54;20432;-74
2022/03/30 03:03:13;;;;;;;33.73;18.80;;;6.30;99.90;;;;;;2611306;54;20461;-76
2022/03/30 03:05:41;;;;;;;32.97;18.27;;;6.30;99.90;;;;;;2612036;54;20960;-76
2022/03/30 03:08:09;;;;;;;32.17;17.13;;;6.30;99.90;;;;;;2613426;54;20404;-75
2022/03/30 03:10:36;;;;;;;36.13;19.23;;;6.10;99.90;;;;;;2612895;54;20431;-73
2022/03/30 03:13:03;;;;;;;37.97;20.30;;;6.10;99.90;;;;;;2612593;54;20426;-75
2022/03/30 03:15:35;;;;;;;27.80;17.00;;;6.00;99.90;;;;;;2612226;46;20497;-75
2022/03/30 03:18:02;;;;;;;40.07;19.10;;;6.00;99.90;;;;;;2611984;54;20415;-75
2022/03/30 03:20:29;;;;;;;27.13;16.77;;;5.90;99.90;;;;;;2612521;54;20431;-76
2022/03/30 03:22:57;;;;;;;32.67;16.43;;;5.80;99.90;;;;;;2612796;54;21023;-75
2022/03/30 03:25:23;;;;;;;30.23;17.37;;;5.70;99.90;;;;;;2612837;39;20507;-74
2022/03/30 03:27:52;;;;;;;30.50;20.00;;;5.70;99.90;;;;;;2612899;54;20398;-74
2022/03/30 03:30:18;;;;;;;32.17;16.97;;;5.60;99.90;;;;;;2611364;54;20411;-75
2022/03/30 03:32:45;;;;;;;45.37;19.30;;;5.50;99.90;;;;;;2611437;54;21322;-73
2022/03/30 03:35:13;;;;;;;27.90;18.50;;;5.50;99.90;;;;;;2612305;39;20438;-75
2022/03/30 03:37:42;;;;;;;31.37;19.00;;;5.40;99.90;;;;;;2611832;54;20500;-75
2022/03/30 03:40:10;;;;;;;32.27;18.40;;;5.50;99.90;;;;;;2612808;54;20407;-76
2022/03/30 03:42:38;;;;;;;28.80;18.47;;;5.50;99.90;;;;;;2612618;54;20391;-75
2022/03/30 03:45:05;;;;;;;38.50;17.90;;;5.40;99.90;;;;;;2613544;54;20406;-75
2022/03/30 03:47:32;;;;;;;30.63;16.87;;;5.40;99.90;;;;;;2612112;54;20412;-77
2022/03/30 03:49:58;;;;;;;34.93;18.10;;;5.30;99.90;;;;;;2611711;54;20955;-75
2022/03/30 03:52:25;;;;;;;41.20;20.20;;;5.20;99.90;;;;;;2612390;54;20416;-76
2022/03/30 03:54:51;;;;;;;32.93;17.63;;;5.10;99.90;;;;;;2612784;54;20546;-75
2022/03/30 03:57:18;;;;;;;32.60;20.00;;;5.10;99.90;;;;;;2610565;46;21251;-76
2022/03/30 03:59:44;;;;;;;38.77;18.50;;;5.20;99.90;;;;;;2613267;54;21037;-75
2022/03/30 04:02:10;;;;;;;42.23;20.53;;;5.10;99.90;;;;;;2613111;51;20767;-74
2022/03/30 04:04:39;;;;;;;36.57;18.60;;;5.10;99.90;;;;;;2612885;54;20151;-73
2022/03/30 04:07:05;;;;;;;33.13;17.43;;;5.10;99.90;;;;;;2612054;54;20975;-74
2022/03/30 04:09:31;;;;;;;32.60;16.60;;;5.00;99.90;;;;;;2612076;54;20516;-74
2022/03/30 04:11:57;;;;;;;30.83;18.63;;;5.10;99.90;;;;;;2612407;47;20968;-75
2022/03/30 04:14:23;;;;;;;30.57;19.87;;;5.10;99.90;;;;;;2611355;54;20454;-74
2022/03/30 04:16:49;;;;;;;31.60;18.93;;;5.20;99.90;;;;;;2610643;54;20431;-74
2022/03/30 04:19:15;;;;;;;35.33;18.17;;;5.40;99.90;;;;;;2611865;54;20458;-75
2022/03/30 04:21:42;;;;;;;34.20;19.83;;;5.30;99.90;;;;;;2612428;39;20582;-74
2022/03/30 04:24:09;;;;;;;34.20;18.77;;;5.20;99.90;;;;;;2612837;39;20965;-74
2022/03/30 04:26:35;;;;;;;39.77;19.07;;;5.30;99.90;;;;;;2612464;48;21002;-75
2022/03/30 04:29:01;;;;;;;35.50;19.83;;;5.30;99.90;;;;;;2612172;54;20455;-75
2022/03/30 04:31:28;;;;;;;34.53;19.20;;;5.20;99.90;;;;;;2611346;54;20410;-76
2022/03/30 04:33:54;;;;;;;34.93;19.50;;;5.10;99.90;;;;;;2611547;54;20437;-75
2022/03/30 04:36:20;;;;;;;37.50;21.33;;;5.20;99.90;;;;;;2612652;54;20408;-74
2022/03/30 04:38:46;;;;;;;37.73;21.23;;;5.20;99.90;;;;;;2612194;39;20657;-76
2022/03/30 04:41:12;;;;;;;36.03;20.90;;;5.10;99.90;;;;;;2611811;39;20930;-75
2022/03/30 04:43:39;;;;;;;36.77;20.10;;;5.00;99.90;;;;;;2612440;54;20956;-74
2022/03/30 04:46:06;;;;;;;33.67;20.33;;;4.90;99.90;;;;;;2610954;54;20419;-75
2022/03/30 04:48:32;;;;;;;35.30;19.00;;;4.80;99.90;;;;;;2610871;54;20398;-75
2022/03/30 04:50:58;;;;;;;34.13;19.83;;;4.80;99.90;;;;;;2611884;39;20746;-75
2022/03/30 04:53:24;;;;;;;32.87;18.60;;;4.70;99.90;;;;;;2609980;54;20421;-74
2022/03/30 04:55:50;;;;;;;30.30;17.90;;;4.70;99.90;;;;;;2610165;54;20177;-77
2022/03/30 04:58:16;;;;;;;40.70;21.57;;;4.60;99.90;;;;;;2610161;39;20222;-75
2022/03/30 05:00:42;;;;;;;41.63;19.80;;;4.60;99.90;;;;;;2610028;54;20553;-75
2022/03/30 05:03:08;;;;;;;41.10;19.87;;;4.70;99.90;;;;;;2611575;54;20150;-76
2022/03/30 05:05:34;;;;;;;43.40;20.70;;;4.60;99.90;;;;;;2610985;54;20790;-75
2022/03/30 05:08:00;;;;;;;39.20;21.23;;;4.60;99.90;;;;;;2610444;54;20450;-75
2022/03/30 05:10:27;;;;;;;43.50;21.40;;;4.50;99.90;;;;;;2611858;54;20216;-77
2022/03/30 05:12:54;;;;;;;42.30;22.30;;;4.50;99.90;;;;;;2613754;39;20653;-76
2022/03/30 05:15:20;;;;;;;35.80;21.80;;;4.50;99.90;;;;;;2612065;50;20437;-74
2022/03/30 05:17:46;;;;;;;39.63;22.47;;;4.60;99.90;;;;;;2611141;54;20390;-73
2022/03/30 05:20:14;;;;;;;40.30;23.00;;;4.50;99.90;;;;;;2608532;54;20435;-74
2022/03/30 05:22:40;;;;;;;43.37;23.50;;;4.40;99.90;;;;;;2608714;54;20435;-74
2022/03/30 05:25:07;;;;;;;34.07;21.17;;;4.40;99.90;;;;;;2609242;54;20412;-74
2022/03/30 05:27:33;;;;;;;40.77;21.83;;;4.40;99.90;;;;;;2611107;54;20398;-75
2022/03/30 05:29:58;;;;;;;36.80;21.40;;;4.40;99.90;;;;;;2612512;39;20847;-74
2022/03/30 05:32:24;;;;;;;38.40;22.23;;;4.30;99.90;;;;;;2609391;54;20600;-76
2022/03/30 05:34:50;;;;;;;38.67;21.93;;;4.30;99.90;;;;;;2611198;54;20154;-73
2022/03/30 05:37:16;;;;;;;35.20;21.13;;;4.40;99.90;;;;;;2609243;54;20209;-74
2022/03/30 05:39:42;;;;;;;38.33;19.40;;;4.40;99.90;;;;;;2608920;47;20434;-75
2022/03/30 05:42:09;;;;;;;41.77;22.37;;;4.40;99.90;;;;;;2627774;36;20490;-76
2022/03/30 05:44:35;;;;;;;44.60;22.57;;;4.50;99.90;;;;;;2611033;54;20415;-73
2022/03/30 05:47:01;;;;;;;42.53;22.30;;;4.60;99.90;;;;;;2610753;54;20851;-76
2022/03/30 05:49:27;;;;;;;41.47;21.27;;;4.70;99.90;;;;;;2610363;54;20904;-74
2022/03/30 05:51:52;;;;;;;39.30;21.33;;;4.80;99.90;;;;;;2609838;54;20406;-75
2022/03/30 05:54:18;;;;;;;33.00;17.13;;;4.60;99.90;;;;;;2611260;47;21668;-74
2022/03/30 05:57:02;;;;;;;34.50;18.90;;;4.50;99.90;;;;;;2609168;39;20845;-74
2022/03/30 05:59:35;;;;;;;38.73;20.90;;;4.50;99.90;;;;;;2611723;47;21411;-73
2022/03/30 06:02:02;;;;;;;35.83;21.37;;;4.50;99.90;;;;;;2611112;46;21029;-75
2022/03/30 06:04:28;;;;;;;39.10;20.40;;;4.50;99.90;;;;;;2609720;54;20479;-73
2022/03/30 06:06:55;;;;;;;35.93;19.80;;;4.60;99.90;;;;;;2610909;47;20475;-75
2022/03/30 06:09:22;;;;;;;37.80;20.87;;;4.70;99.90;;;;;;2609112;54;20443;-75
2022/03/30 06:11:48;;;;;;;31.60;19.80;;;4.70;99.90;;;;;;2608653;54;20403;-75
2022/03/30 06:14:14;;;;;;;45.97;21.53;;;4.80;99.90;;;;;;2607192;54;20467;-76
2022/03/30 06:16:43;;;;;;;38.43;21.60;;;4.90;99.90;;;;;;2609701;54;20154;-73
2022/03/30 06:19:10;;;;;;;31.13;20.73;;;5.10;99.90;;;;;;2610925;54;20432;-77
2022/03/30 06:21:36;;;;;;;30.07;19.10;;;5.20;99.90;;;;;;2608939;54;20403;-75
2022/03/30 06:24:02;;;;;;;30.23;20.23;;;5.30;99.90;;;;;;2610086;54;20433;-73
2022/03/30 06:26:29;;;;;;;30.37;18.67;;;5.40;99.90;;;;;;2609576;47;21039;-75
2022/03/30 06:28:56;;;;;;;36.40;19.30;;;5.40;99.90;;;;;;2609362;54;20432;-75
2022/03/30 06:31:22;;;;;;;28.93;19.07;;;5.40;99.90;;;;;;2610079;54;20414;-74
2022/03/30 06:33:49;;;;;;;38.07;21.60;;;5.40;99.90;;;;;;2610546;47;20435;-73
2022/03/30 06:36:15;;;;;;;34.23;19.90;;;5.30;99.90;;;;;;2611401;47;20990;-75
2022/03/30 06:38:42;;;;;;;38.00;20.90;;;5.30;99.90;;;;;;2610313;47;20587;-75
2022/03/30 06:41:08;;;;;;;30.87;19.07;;;5.40;99.90;;;;;;2610105;54;20519;-75
2022/03/30 06:43:42;;;;;;;28.63;19.37;;;5.50;99.90;;;;;;2609168;54;20406;-76
2022/03/30 06:46:09;;;;;;;34.87;18.03;;;5.80;99.90;;;;;;2608453;54;20930;-74
2022/03/30 06:48:36;;;;;;;27.67;17.47;;;6.00;99.90;;;;;;2610430;54;20420;-74
2022/03/30 06:51:03;;;;;;;27.00;14.60;;;6.20;99.90;;;;;;2606672;54;20423;-76
2022/03/30 06:53:29;;;;;;;27.23;18.60;;;6.50;99.90;;;;;;2627074;36;20468;-75
2022/03/30 06:55:56;;;;;;;26.93;17.67;;;6.80;99.90;;;;;;2610640;54;20461;-74
2022/03/30 06:58:22;;;;;;;29.53;17.20;;;7.20;99.90;;;;;;2610703;54;20949;-73
2022/03/30 07:00:49;;;;;;;32.53;17.73;;;7.50;99.90;;;;;;2607629;39;20827;-74
2022/03/30 07:03:15;;;;;;;26.67;16.10;;;7.80;99.90;;;;;;2607784;39;20622;-75
2022/03/30 07:05:41;;;;;;;25.73;15.10;;;8.00;99.90;;;;;;2606627;54;20996;-74
2022/03/30 07:10:51;;;;;;;30.43;15.43;;;8.70;97.60;;;;;;2605838;54;20230;-74
2022/03/30 07:13:17;;;;;;;31.13;15.83;;;8.90;94.50;;;;;;2606494;31;20974;-73
2022/03/30 07:15:43;;;;;;;25.40;17.67;;;9.00;93.70;;;;;;2609633;39;20966;-75
2022/03/30 07:18:09;;;;;;;29.87;15.80;;;9.20;91.10;;;;;;2608719;54;20262;-74
2022/03/30 07:20:37;;;;;;;26.73;17.20;;;9.20;90.10;;;;;;2608680;54;20266;-74
2022/03/30 07:23:03;;;;;;;27.73;17.13;;;9.40;85.60;;;;;;2608037;54;20185;-78
2022/03/30 07:25:30;;;;;;;31.10;16.50;;;9.40;87.20;;;;;;2607948;54;20393;-76
2022/03/30 07:27:59;;;;;;;30.00;17.80;;;9.80;82.50;;;;;;2607568;54;20450;-74
2022/03/30 07:30:25;;;;;;;22.70;16.57;;;10.20;75.20;;;;;;2609089;46;20447;-75
2022/03/30 07:32:53;;;;;;;30.70;18.47;;;10.60;71.50;;;;;;2611387;47;20456;-74
2022/03/30 07:35:22;;;;;;;27.57;18.43;;;10.60;67.90;;;;;;2607432;51;20948;-74
2022/03/30 07:37:49;;;;;;;26.13;18.53;;;10.70;67.10;;;;;;2605173;54;20396;-74
2022/03/30 07:40:22;;;;;;;26.23;16.20;;;11.20;61.40;;;;;;2608639;39;20963;-74
2022/03/30 07:42:49;;;;;;;26.03;16.00;;;11.30;59.00;;;;;;2611914;54;20383;-74
2022/03/30 07:45:16;;;;;;;29.77;18.07;;;11.50;56.90;;;;;;2610174;54;20462;-76
2022/03/30 07:47:42;;;;;;;26.53;17.43;;;11.60;54.20;;;;;;2609795;54;20400;-75
2022/03/30 07:50:09;;;;;;;22.70;17.53;;;11.80;49.60;;;;;;2610157;54;20502;-75
2022/03/30 07:52:35;;;;;;;30.63;18.90;;;11.90;46.90;;;;;;2611306;54;20466;-75
2022/03/30 07:55:01;;;;;;;31.17;17.60;;;12.00;45.60;;;;;;2609290;47;20440;-75
2022/03/30 07:57:27;;;;;;;27.30;18.17;;;12.00;45.30;;;;;;2609819;54;20395;-76
2022/03/30 07:59:54;;;;;;;25.97;19.40;;;12.30;41.60;;;;;;2607032;47;20190;-74
2022/03/30 08:02:21;;;;;;;27.63;17.60;;;12.20;41.30;;;;;;2606973;54;20403;-75
2022/03/30 08:04:47;;;;;;;31.30;19.70;;;12.40;39.70;;;;;;2609399;54;20408;-75
2022/03/30 08:07:14;;;;;;;24.20;18.00;;;12.50;38.00;;;;;;2611596;54;20427;-76
2022/03/30 08:09:40;;;;;;;24.47;17.40;;;12.70;36.70;;;;;;2611146;54;20415;-75
2022/03/30 08:12:07;;;;;;;28.50;20.40;;;12.60;36.00;;;;;;2607938;54;20531;-74
2022/03/30 08:14:33;;;;;;;22.47;18.03;;;12.70;34.30;;;;;;2609281;54;21520;-75
2022/03/30 08:17:00;;;;;;;21.80;17.17;;;12.80;33.00;;;;;;2610057;54;20419;-73
2022/03/30 08:19:26;;;;;;;25.93;19.17;;;13.00;30.40;;;;;;2607531;54;20702;-75
2022/03/30 08:24:36;;;;;;;25.93;18.73;;;13.30;28.30;;;;;;2609747;54;20188;-74
2022/03/30 08:27:04;;;;;;;23.00;16.60;;;13.40;26.30;;;;;;2608400;54;20431;-75
2022/03/30 08:29:30;;;;;;;28.43;17.47;;;13.40;25.60;;;;;;2609113;54;20506;-75
2022/03/30 08:31:55;;;;;;;24.13;15.50;;;13.30;25.60;;;;;;2610075;54;20948;-75
2022/03/30 08:34:21;;;;;;;31.43;17.67;;;13.10;25.10;;;;;;2610633;54;20150;-73
2022/03/30 08:36:47;;;;;;;29.50;16.90;;;13.00;24.50;;;;;;2611032;46;20178;-74
2022/03/30 08:39:13;;;;;;;26.50;19.03;;;13.10;24.60;;;;;;2609852;39;20940;-75
2022/03/30 08:41:45;;;;;;;24.57;17.03;;;13.20;24.20;;;;;;2610675;47;20407;-74
2022/03/30 08:44:16;;;;;;;29.63;18.40;;;13.40;22.10;;;;;;2611655;39;20852;-73
2022/03/30 08:46:45;;;;;;;20.17;15.00;;;13.60;22.10;;;;;;2610673;54;20458;-73
2022/03/30 08:49:12;;;;;;;26.23;16.57;;;13.70;20.60;;;;;;2611424;54;20410;-74
2022/03/30 08:51:40;;;;;;;21.13;15.50;;;13.90;19.70;;;;;;2610116;54;20412;-75
2022/03/30 08:54:10;;;;;;;23.73;17.67;;;14.00;18.60;;;;;;2611344;47;20434;-73
2022/03/30 08:56:37;;;;;;;19.53;15.43;;;13.90;17.60;;;;;;2610854;54;20430;-76
2022/03/30 08:59:04;;;;;;;25.60;16.33;;;14.00;17.10;;;;;;2610542;54;20419;-74
2022/03/30 09:01:35;;;;;;;17.10;15.30;;;13.70;16.50;;;;;;2611346;54;21002;-75
2022/03/30 09:04:03;;;;;;;28.63;16.63;;;14.00;14.70;;;;;;2612104;54;21008;-75
2022/03/30 09:06:53;;;;;;;25.80;17.70;;;13.90;13.70;;;;;;2610039;54;20967;-74
2022/03/30 09:09:31;;;;;;;19.73;16.00;;;13.90;14.20;;;;;;2611527;47;20449;-75
2022/03/30 09:11:59;;;;;;;17.47;14.40;;;14.10;12.70;;;;;;2611420;46;20459;-76
2022/03/30 09:14:33;;;;;;;18.27;14.43;;;14.10;11.50;;;;;;2610847;54;20459;-75
2022/03/30 09:17:02;;;;;;;19.30;15.53;;;14.40;9.10;;;;;;2610994;54;20510;-76
2022/03/30 09:19:30;;;;;;;18.97;13.90;;;14.50;7.30;;;;;;2610774;54;20460;-77
2022/03/30 09:21:58;;;;;;;19.27;15.50;;;14.70;5.70;;;;;;2610127;54;20430;-75
2022/03/30 09:24:30;;;;;;;19.67;14.30;;;14.70;5.70;;;;;;2610428;54;20469;-76
2022/03/30 09:26:59;;;;;;;17.07;15.20;;;14.70;6.10;;;;;;2613507;54;20456;-78
2022/03/30 09:29:31;;;;;;;20.30;18.17;;;14.70;3.50;;;;;;2612533;46;20427;-76
2022/03/30 09:32:01;;;;;;;25.30;16.70;;;14.70;3.90;;;;;;2612894;47;20495;-78
2022/03/30 09:34:33;;;;;;;16.97;13.87;;;14.80;3.10;;;;;;2611398;54;20442;-76
2022/03/30 09:36:59;;;;;;;18.67;14.47;;;14.80;2.50;;;;;;2612443;54;20408;-76
2022/03/30 09:39:37;;;;;;;18.97;14.37;;;15.00;2.90;;;;;;2612204;46;20427;-77
2022/03/30 09:42:07;;;;;;;17.30;13.63;;;15.00;1.60;;;;;;2609391;46;20422;-77
2022/03/30 09:44:44;;;;;;;17.27;13.83;;;14.90;2.40;;;;;;2610843;54;20526;-77
2022/03/30 09:47:10;;;;;;;16.90;14.57;;;15.20;1.00;;;;;;2609633;46;20435;-79
2022/03/30 09:49:37;;;;;;;18.23;14.17;;;15.10;1.00;;;;;;2613252;39;20792;-77
2022/03/30 09:52:29;;;;;;;15.77;14.10;;;15.00;1.00;;;;;;2610423;39;20578;-78
2022/03/30 09:54:58;;;;;;;18.20;15.00;;;15.10;1.00;;;;;;2613413;54;20407;-78
2022/03/30 09:57:43;;;;;;;16.27;14.57;;;15.70;1.00;;;;;;2610987;54;20559;-76
2022/03/30 10:00:10;;;;;;;15.57;14.03;;;16.20;1.00;;;;;;2609220;47;20412;-78
2022/03/30 10:02:44;;;;;;;19.43;14.93;;;16.40;1.00;;;;;;2610462;54;20447;-78
2022/03/30 10:05:12;;;;;;;18.30;16.40;;;16.20;1.00;;;;;;2610415;54;20426;-77
2022/03/30 10:07:39;;;;;;;15.23;13.90;;;16.30;1.00;;;;;;2609216;47;20442;-77
2022/03/30 10:10:07;;;;;;;16.27;14.67;;;16.70;1.00;;;;;;2608801;54;20933;-78
2022/03/30 10:12:34;;;;;;;18.70;13.47;;;16.90;1.00;;;;;;2611194;39;21188;-77
2022/03/30 10:15:00;;;;;;;18.00;14.03;;;16.40;1.00;;;;;;2610772;54;20443;-78
2022/03/30 10:17:30;;;;;;;17.43;12.87;;;16.30;1.00;;;;;;2612293;54;20412;-78
2022/03/30 10:19:58;;;;;;;247.60;65.83;;;16.10;1.00;;;;;;2611263;54;20158;-76
2022/03/30 10:22:48;;;;;;;47.77;22.97;;;16.20;1.00;;;;;;2608883;46;20987;-76
2022/03/30 10:25:21;;;;;;;20.67;16.50;;;16.00;1.00;;;;;;2611902;54;20967;-77
2022/03/30 10:28:13;;;;;;;15.83;14.33;;;16.10;1.00;;;;;;2610584;54;20459;-80
2022/03/30 10:30:43;;;;;;;14.73;13.10;;;16.50;1.00;;;;;;2610543;47;20447;-77
2022/03/30 10:33:10;;;;;;;13.77;12.47;;;16.60;1.00;;;;;;2612372;54;20413;-78
2022/03/30 10:35:44;;;;;;;16.77;13.60;;;16.60;1.00;;;;;;2610905;47;20555;-76
2022/03/30 10:38:10;;;;;;;14.60;12.50;;;16.10;1.00;;;;;;2610043;54;20423;-79
2022/03/30 10:40:38;;;;;;;12.97;11.73;;;16.30;1.00;;;;;;2609418;54;20403;-79
2022/03/30 10:43:09;;;;;;;16.70;14.80;;;16.50;1.00;;;;;;2611581;54;20424;-76
2022/03/30 10:45:51;;;;;;;17.23;15.70;;;16.00;1.00;;;;;;2610284;54;20425;-76
2022/03/30 10:48:38;;;;;;;17.80;15.20;;;16.10;1.00;;;;;;2611190;54;20424;-77
2022/03/30 10:51:10;;;;;;;15.70;14.23;;;16.60;1.00;;;;;;2612575;54;20779;-77
2022/03/30 10:53:41;;;;;;;16.70;15.10;;;16.50;1.00;;;;;;2612984;54;21078;-77
2022/03/30 10:56:16;;;;;;;18.73;16.80;;;16.60;1.00;;;;;;2611035;54;20412;-79
2022/03/30 10:59:00;;;;;;;16.93;14.43;;;16.70;1.00;;;;;;2611606;39;20562;-77
2022/03/30 11:01:28;;;;;;;15.93;14.33;;;16.80;1.00;;;;;;2612175;54;20583;-78
2022/03/30 11:03:59;;;;;;;17.50;15.70;;;17.10;1.00;;;;;;2610778;54;20424;-75
2022/03/30 11:06:27;;;;;;;17.33;15.50;;;17.10;1.00;;;;;;2627614;36;20467;-76
2022/03/30 11:09:02;;;;;;;17.93;16.00;;;16.70;1.00;;;;;;2612808;54;20994;-76
2022/03/30 11:11:34;;;;;;;18.20;16.40;;;17.00;1.00;;;;;;2611814;54;20400;-79
2022/03/30 11:14:36;;;;;;;18.67;16.00;;;16.80;1.00;;;;;;2611455;54;20431;-78
2022/03/30 11:17:07;;;;;;;16.80;14.47;;;16.20;1.00;;;;;;2613693;54;20420;-77
2022/03/30 11:19:49;;;;;;;17.50;15.23;;;16.70;1.00;;;;;;2612155;46;20450;-77
2022/03/30 11:22:36;;;;;;;17.20;15.70;;;17.40;1.00;;;;;;2611442;47;20523;-77
2022/03/30 11:25:20;;;;;;;17.17;15.57;;;17.90;1.00;;;;;;2610751;54;21019;-77
2022/03/30 11:27:58;;;;;;;15.80;14.20;;;17.90;1.00;;;;;;2611561;47;20429;-79
2022/03/30 11:30:29;;;;;;;19.20;15.30;;;17.50;1.00;;;;;;2611753;54;20429;-77
2022/03/30 11:32:55;;;;;;;16.57;15.03;;;17.60;1.00;;;;;;2611297;54;20518;-77
2022/03/30 11:35:28;;;;;;;17.30;15.37;;;17.30;1.00;;;;;;2610228;39;21217;-78
2022/03/30 11:38:15;;;;;;;18.20;16.50;;;17.30;1.00;;;;;;2610941;54;20172;-75
2022/03/30 11:40:44;;;;;;;16.83;15.33;;;17.10;1.00;;;;;;2611198;54;20411;-77
2022/03/30 11:43:11;;;;;;;16.93;15.40;;;16.90;1.00;;;;;;2610153;46;20450;-75
2022/03/30 11:45:37;;;;;;;19.70;17.47;;;16.70;1.00;;;;;;2610953;54;20516;-79
2022/03/30 11:48:10;;;;;;;16.83;15.27;;;16.20;1.00;;;;;;2609957;54;21162;-76
2022/03/30 11:50:42;;;;;;;15.60;14.20;;;16.30;1.00;;;;;;2610930;54;20434;-80
2022/03/30 11:53:19;;;;;;;19.27;17.37;;;16.90;1.00;;;;;;2610459;39;20761;-78
2022/03/30 11:55:50;;;;;;;18.23;16.53;;;16.70;1.00;;;;;;2611393;54;20401;-77
2022/03/30 11:58:45;;;;;;;18.87;17.17;;;17.10;1.00;;;;;;2610667;47;20404;-79
2022/03/30 12:01:14;;;;;;;15.60;14.00;;;17.10;1.00;;;;;;2610121;47;21490;-78
2022/03/30 12:03:54;;;;;;;18.23;16.33;;;17.00;1.00;;;;;;2610837;54;20444;-79
2022/03/30 12:06:20;;;;;;;18.23;16.43;;;16.70;1.00;;;;;;2611847;39;20892;-77
2022/03/30 12:08:52;;;;;;;15.90;14.33;;;16.70;1.00;;;;;;2610330;46;20412;-76
2022/03/30 12:11:22;;;;;;;16.67;13.93;;;16.90;1.00;;;;;;2609944;46;20415;-78
2022/03/30 12:13:53;;;;;;;16.60;14.83;;;16.80;1.00;;;;;;2610395;54;20423;-77
2022/03/30 12:16:20;;;;;;;15.03;13.50;;;16.50;1.00;;;;;;2610917;54;21634;-77
2022/03/30 12:18:48;;;;;;;21.40;14.77;;;16.70;1.00;;;;;;2611708;54;20386;-77
2022/03/30 12:21:19;;;;;;;16.13;14.53;;;16.70;1.00;;;;;;2611337;54;20423;-79
2022/03/30 12:23:55;;;;;;;16.20;14.70;;;17.30;1.00;;;;;;2608981;54;20407;-77
2022/03/30 12:26:21;;;;;;;17.43;15.60;;;17.40;1.00;;;;;;2611106;54;20416;-78
2022/03/30 12:28:47;;;;;;;17.13;15.00;;;17.40;1.00;;;;;;2607186;54;20404;-77
2022/03/30 12:31:16;;;;;;;15.20;13.73;;;17.40;1.00;;;;;;2609992;54;20454;-78
2022/03/30 12:33:51;;;;;;;16.13;14.73;;;17.30;1.00;;;;;;2609238;54;20167;-77
2022/03/30 12:36:21;;;;;;;14.47;13.03;;;17.30;1.00;;;;;;2609226;54;20413;-78
2022/03/30 12:38:51;;;;;;;16.20;13.20;;;17.60;1.00;;;;;;2610402;54;20497;-77
2022/03/30 12:41:27;;;;;;;15.77;14.10;;;17.70;1.00;;;;;;2609918;54;20520;-77
2022/03/30 12:44:01;;;;;;;16.07;14.37;;;18.00;1.00;;;;;;2609654;47;20525;-77
2022/03/30 12:46:32;;;;;;;15.80;14.30;;;17.80;1.00;;;;;;2610305;47;20445;-77
2022/03/30 12:49:08;;;;;;;18.73;14.57;;;17.50;1.00;;;;;;2611533;54;20413;-78
2022/03/30 12:51:35;;;;;;;14.17;12.77;;;17.80;1.00;;;;;;2608417;54;20395;-77